Time;durP1;ratioP1;P1;durP2;ratioP2;P2;SDS_P1;SDS_P2;PMS_P1;PMS_P2;Temp;Humidity;BMP_temperature;BMP_pressure;BME280_temperature;BME280_humidity;BME280_pressure;Samples;Min_cycle;Max_cycle;Signal;HPM_P1;HPM_P2
2023/08/29 00:01:06;;;;;;;;;;;;;;;15.53;73.19;100382.38;105724;1286;60336;-87
2023/08/29 00:04:32;;;;;;;;;;;;;;;15.58;73.16;100392.30;105700;1286;60418;-87
2023/08/29 00:07:58;;;;;;;;;;;;;;;15.55;73.19;100365.09;105522;1286;72529;-87
2023/08/29 00:11:25;;;;;;;;;;;;;;;15.57;73.23;100349.73;105780;1286;67203;-86
2023/08/29 00:14:51;;;;;;;;;;;;;;;15.58;73.19;100365.86;105555;1285;72463;-86
2023/08/29 00:18:19;;;;;;;;;;;;;;;15.59;73.21;100348.80;105741;1285;60317;-86
2023/08/29 00:21:45;;;;;;;;;;;;;;;15.58;73.31;100334.77;105566;1285;60330;-86
2023/08/29 00:25:11;;;;;;;;;;;;;;;15.57;73.35;100332.73;105754;1291;74260;-86
2023/08/29 00:28:37;;;;;;;;;;;;;;;15.57;73.27;100303.54;105756;1285;67362;-87
2023/08/29 00:32:04;;;;;;;;;;;;;;;15.55;73.24;100305.84;105706;1286;71681;-87
2023/08/29 00:35:30;;;;;;;;;;;;;;;15.53;73.43;100298.08;105508;1286;60527;-87
2023/08/29 00:38:57;;;;;;;;;;;;;;;15.53;73.24;100271.52;105685;1286;60310;-87
2023/08/29 00:42:23;;;;;;;;;;;;;;;15.51;73.20;100243.62;105725;1286;72605;-87
2023/08/29 00:45:49;;;;;;;;;;;;;;;15.49;73.34;100233.48;105471;1286;67218;-86
2023/08/29 00:49:16;;;;;;;;;;;;;;;15.48;73.47;100227.78;105723;1286;72627;-86
2023/08/29 00:52:42;;;;;;;;;;;;;;;15.47;73.28;100205.07;105588;1285;60327;-85
2023/08/29 00:56:09;;;;;;;;;;;;;;;15.44;73.36;100194.42;105368;1286;60946;-86
2023/08/29 00:59:35;;;;;;;;;;;;;;;15.41;73.43;100195.61;105400;1285;72611;-86
2023/08/29 01:03:01;;;;;;;;;;;;;;;15.40;73.32;100208.16;105585;1285;68558;-86
2023/08/29 01:06:28;;;;;;;;;;;;;;;15.40;73.51;100230.05;105658;1286;73868;-86
2023/08/29 01:09:54;;;;;;;;;;;;;;;15.37;73.47;100255.16;105692;1286;60433;-85
2023/08/29 01:13:20;;;;;;;;;;;;;;;15.24;73.81;100238.48;105527;1286;60335;-86
2023/08/29 01:16:47;;;;;;;;;;;;;;;15.17;74.04;100242.95;105721;1286;75262;-86
2023/08/29 01:20:13;;;;;;;;;;;;;;;15.13;74.28;100281.83;105307;1286;68009;-86
2023/08/29 01:23:55;;;;;;;;;;;;;;;15.08;74.33;100280.14;105421;1286;71666;-86
2023/08/29 01:27:21;;;;;;;;;;;;;;;15.04;74.22;100258.63;105457;1285;60008;-86
2023/08/29 01:30:48;;;;;;;;;;;;;;;15.03;74.47;100270.13;105434;1285;60371;-86
2023/08/29 01:34:14;;;;;;;;;;;;;;;15.03;74.45;100264.94;105746;1286;75256;-86
2023/08/29 01:37:41;;;;;;;;;;;;;;;15.03;74.46;100267.87;105538;1286;69259;-86
2023/08/29 01:41:07;;;;;;;;;;;;;;;15.02;74.52;100253.86;105614;1286;72156;-86
2023/08/29 01:44:34;;;;;;;;;;;;;;;15.02;74.56;100257.85;105529;1286;60550;-86
2023/08/29 01:48:00;;;;;;;;;;;;;;;15.03;74.58;100278.09;105488;1286;60303;-86
2023/08/29 01:51:26;;;;;;;;;;;;;;;15.03;74.49;100276.20;105715;1286;72491;-86
2023/08/29 01:54:53;;;;;;;;;;;;;;;15.02;74.57;100252.11;105798;1285;67253;-86
2023/08/29 01:58:19;;;;;;;;;;;;;;;15.02;74.50;100237.35;105736;1286;72118;-86
2023/08/29 02:01:45;;;;;;;;;;;;;;;15.03;74.63;100228.65;105822;1286;60367;-86
2023/08/29 02:05:12;;;;;;;;;;;;;;;15.04;74.59;100235.56;105723;1286;60345;-86
2023/08/29 02:08:38;;;;;;;;;;;;;;;15.04;74.53;100213.33;105699;1285;72377;-85
2023/08/29 02:12:04;;;;;;;;;;;;;;;15.04;74.52;100208.13;105638;1285;67115;-85
2023/08/29 02:15:31;;;;;;;;;;;;;;;15.03;74.38;100210.40;105166;1292;71253;-85
2023/08/29 02:18:57;;;;;;;;;;;;;;;15.02;74.42;100216.35;105085;1291;59365;-85
2023/08/29 02:22:23;;;;;;;;;;;;;;;15.00;74.44;100209.85;105724;1291;61569;-86
2023/08/29 02:25:50;;;;;;;;;;;;;;;14.99;74.53;100210.56;105118;1292;72385;-85
2023/08/29 02:29:16;;;;;;;;;;;;;;;15.00;74.60;100227.54;105027;1292;67541;-85
2023/08/29 02:32:43;;;;;;;;;;;;;;;14.96;74.54;100246.11;105106;1292;74039;-85
2023/08/29 02:36:09;;;;;;;;;;;;;;;14.96;74.66;100245.58;105148;1295;59315;-86
2023/08/29 02:39:35;;;;;;;;;;;;;;;14.99;74.65;100247.71;105103;1292;60504;-85
2023/08/29 02:43:02;;;;;;;;;;;;;;;15.01;74.68;100270.02;105091;1292;73726;-85
2023/08/29 02:46:28;;;;;;;;;;;;;;;15.02;74.73;100294.27;104746;1297;67193;-85
2023/08/29 02:49:55;;;;;;;;;;;;;;;15.05;74.70;100311.55;104620;1297;73167;-85
2023/08/29 02:53:21;;;;;;;;;;;;;;;15.06;74.77;100263.59;105075;1292;60462;-86
2023/08/29 02:56:47;;;;;;;;;;;;;;;15.05;74.70;100257.88;105189;1292;64500;-85
2023/08/29 03:00:14;;;;;;;;;;;;;;;15.02;74.61;100293.09;105103;1291;73322;-86
2023/08/29 03:03:40;;;;;;;;;;;;;;;15.00;74.84;100288.48;104607;1297;68636;-85
2023/08/29 03:07:07;;;;;;;;;;;;;;;15.01;74.88;100265.33;104589;1302;71394;-88
2023/08/29 03:10:33;;;;;;;;;;;;;;;15.02;74.82;100247.75;104593;1299;59213;-88
2023/08/29 03:14:00;;;;;;;;;;;;;;;15.02;74.84;100228.67;104584;1297;60360;-87
2023/08/29 03:17:25;;;;;;;;;;;;;;;15.04;74.76;100184.88;104927;1295;72345;-88
2023/08/29 03:20:52;;;;;;;;;;;;;;;15.01;74.53;100115.52;104979;1296;68541;-87
2023/08/29 03:24:19;;;;;;;;;;;;;;;14.95;74.37;100006.63;104900;1293;71339;-87
2023/08/29 03:27:45;;;;;;;;;;;;;;;14.88;74.43;99938.38;105043;1294;60524;-87
2023/08/29 03:31:11;;;;;;;;;;;;;;;14.83;74.47;99963.95;105006;1294;60285;-88
2023/08/29 03:34:37;;;;;;;;;;;;;;;14.75;74.64;100060.56;104984;1297;75863;-88
2023/08/29 03:38:03;;;;;;;;;;;;;;;14.68;74.71;100073.88;104995;1295;67192;-88
2023/08/29 03:41:29;;;;;;;;;;;;;;;14.71;74.88;100062.84;104756;1297;72560;-88
2023/08/29 03:44:55;;;;;;;;;;;;;;;14.73;74.80;100036.72;104601;1294;60381;-88
2023/08/29 03:48:22;;;;;;;;;;;;;;;14.75;74.89;100037.34;104900;1294;60706;-88
2023/08/29 03:51:48;;;;;;;;;;;;;;;14.75;74.88;100047.02;104848;1295;75269;-88
2023/08/29 03:55:14;;;;;;;;;;;;;;;14.78;74.93;100050.57;104839;1295;71606;-87
2023/08/29 03:58:40;;;;;;;;;;;;;;;14.80;75.02;100032.09;104849;1295;72621;-88
2023/08/29 04:02:08;;;;;;;;;;;;;;;14.82;75.04;100030.59;104562;1295;60363;-88
2023/08/29 04:05:35;;;;;;;;;;;;;;;14.84;75.05;100006.56;104899;1294;60306;-87
2023/08/29 04:08:59;;;;;;;;;;;;;;;14.84;74.98;100002.91;104374;1302;74518;-87
2023/08/29 04:12:25;;;;;;;;;;;;;;;14.84;75.06;100003.97;104393;1305;68777;-85
2023/08/29 04:15:51;;;;;;;;;;;;;;;14.85;75.15;100010.34;104284;1300;71410;-85
2023/08/29 04:19:17;;;;;;;;;;;;;;;14.86;75.09;100009.10;104796;1294;60656;-84
2023/08/29 04:22:32;;;;;;;;;;;;;;;14.88;75.14;99993.58;104909;1294;59897;-85
2023/08/29 04:25:39;;;;;;;;;;;;;;;14.89;75.11;99975.11;104930;1295;73655;-85
2023/08/29 04:29:05;;;;;;;;;;;;;;;14.90;75.15;99951.47;104923;1295;70064;-85
2023/08/29 04:32:36;;;;;;;;;;;;;;;14.90;75.06;99960.84;104828;1294;72644;-85
2023/08/29 04:35:57;;;;;;;;;;;;;;;14.92;75.27;99973.61;104874;1294;58403;-85
2023/08/29 04:39:23;;;;;;;;;;;;;;;14.93;75.11;99973.92;104708;1297;59268;-85
2023/08/29 04:42:48;;;;;;;;;;;;;;;14.95;75.29;99979.23;104925;1297;72377;-85
2023/08/29 04:46:15;;;;;;;;;;;;;;;14.98;75.26;99988.80;105187;1289;67900;-85
2023/08/29 04:49:41;;;;;;;;;;;;;;;15.03;75.35;99997.05;105375;1290;71202;-86
2023/08/29 04:53:07;;;;;;;;;;;;;;;15.09;75.31;99998.34;105343;1289;60486;-85
2023/08/29 04:56:33;;;;;;;;;;;;;;;15.12;75.30;99997.86;105340;1289;62857;-85
2023/08/29 05:00:00;;;;;;;;;;;;;;;15.15;75.29;99978.98;105326;1294;72349;-85
2023/08/29 05:03:05;;;;;;;;;;;;;;;15.18;75.38;99975.67;105406;1295;68502;-85
2023/08/29 05:06:12;;;;;;;;;;;;;;;15.22;75.40;99977.76;105291;1289;71196;-85
2023/08/29 05:09:38;;;;;;;;;;;;;;;15.27;75.37;99978.27;105374;1289;60481;-85
2023/08/29 05:13:04;;;;;;;;;;;;;;;15.32;75.48;99990.88;105419;1289;59338;-85
2023/08/29 05:16:32;;;;;;;;;;;;;;;15.37;75.37;99974.52;105462;1288;73581;-85
2023/08/29 05:19:56;;;;;;;;;;;;;;;15.44;75.48;99956.48;105430;1288;67757;-85
2023/08/29 05:23:22;;;;;;;;;;;;;;;15.50;75.40;99957.73;105498;1286;72580;-85
2023/08/29 05:26:49;;;;;;;;;;;;;;;15.53;75.36;99940.04;105717;1290;60469;-85
2023/08/29 05:30:14;;;;;;;;;;;;;;;15.55;75.39;99933.20;105732;1291;58687;-85
2023/08/29 05:33:40;;;;;;;;;;;;;;;15.53;75.33;99919.19;105668;1291;74247;-86
2023/08/29 05:37:07;;;;;;;;;;;;;;;15.54;75.27;99911.00;105753;1286;67549;-86
2023/08/29 05:40:33;;;;;;;;;;;;;;;15.54;75.24;99896.76;105601;1286;71394;-85
2023/08/29 05:43:59;;;;;;;;;;;;;;;15.57;75.35;99886.21;105634;1286;60316;-85
2023/08/29 05:47:25;;;;;;;;;;;;;;;15.69;75.65;99924.19;105782;1286;59861;-85
2023/08/29 05:50:51;;;;;;;;;;;;;;;15.91;75.52;99957.36;105695;1286;76628;-85
2023/08/29 05:54:17;;;;;;;;;;;;;;;15.97;75.42;99953.59;105727;1290;67422;-85
2023/08/29 05:57:43;;;;;;;;;;;;;;;15.98;75.40;99964.48;105709;1286;71341;-86
2023/08/29 06:01:09;;;;;;;;;;;;;;;16.02;75.28;99958.21;105692;1291;60702;-85
2023/08/29 06:04:35;;;;;;;;;;;;;;;16.05;75.27;99942.27;105777;1286;60257;-86
2023/08/29 06:08:01;;;;;;;;;;;;;;;16.09;75.28;99939.09;105663;1286;73576;-86
2023/08/29 06:11:29;;;;;;;;;;;;;;;16.12;75.26;99952.85;105500;1289;67833;-86
2023/08/29 06:14:54;;;;;;;;;;;;;;;16.17;75.44;99963.17;105555;1290;72500;-86
2023/08/29 06:18:20;;;;;;;;;;;;;;;16.23;75.41;99972.09;105582;1291;60655;-86
2023/08/29 06:21:45;;;;;;;;;;;;;;;16.26;75.35;99990.39;105559;1290;60406;-86
2023/08/29 06:25:12;;;;;;;;;;;;;;;16.26;75.41;99988.16;105801;1291;75170;-86
2023/08/29 06:28:38;;;;;;;;;;;;;;;16.25;75.31;99992.86;105772;1286;67203;-85
2023/08/29 06:32:04;;;;;;;;;;;;;;;16.25;75.40;100001.05;105793;1288;74000;-86
2023/08/29 06:35:30;;;;;;;;;;;;;;;16.25;75.46;100005.03;105430;1289;60430;-86
2023/08/29 06:38:55;;;;;;;;;;;;;;;16.28;75.49;100000.75;104892;1288;60363;-86
2023/08/29 06:42:22;;;;;;;;;;;;;;;16.29;75.39;99984.66;104924;1291;76412;-86
2023/08/29 06:45:48;;;;;;;;;;;;;;;16.29;75.35;99973.88;104900;1288;68413;-86
2023/08/29 06:49:15;;;;;;;;;;;;;;;16.30;75.33;99972.98;104930;1289;71375;-86
2023/08/29 06:52:41;;;;;;;;;;;;;;;16.29;75.30;99964.30;104904;1289;61515;-86
2023/08/29 06:56:07;;;;;;;;;;;;;;;16.29;75.31;99963.45;104856;1289;60024;-86
2023/08/29 06:59:33;;;;;;;;;;;;;;;16.29;75.34;99968.34;104909;1292;73466;-85
2023/08/29 07:02:55;;;;;;;;;;;;;;;16.28;75.27;99971.18;104900;1289;67233;-85
2023/08/29 07:06:01;;;;;;;;;;;;;;;16.27;75.22;99972.61;105430;1290;71359;-86
2023/08/29 07:09:07;;;;;;;;;;;;;;;16.28;75.31;99970.30;101614;1286;5148948;-86
2023/08/29 07:12:33;;;;;;;;;;;;;;;16.29;75.23;99963.98;105492;1289;60363;-85
2023/08/29 07:15:59;;;;;;;;;;;;;;;16.31;75.31;99982.34;105548;1286;73073;-87
2023/08/29 07:19:05;;;;;;;;;;;;;;;16.31;75.33;99988.41;105395;1286;67290;-85
2023/08/29 07:22:12;;;;;;;;;;;;;;;16.31;75.25;99990.83;105432;1287;71396;-86
2023/08/29 07:25:38;;;;;;;;;;;;;;;16.32;75.38;99974.23;105726;1292;60419;-87
2023/08/29 07:29:04;;;;;;;;;;;;;;;16.33;75.24;99960.83;105816;1286;60026;-87
2023/08/29 07:32:30;;;;;;;;;;;;;;;16.30;75.17;99952.41;105716;1286;73113;-86
2023/08/29 07:35:57;;;;;;;;;;;;;;;16.31;75.07;99945.80;105746;1286;67697;-86
2023/08/29 07:39:24;;;;;;;;;;;;;;;16.34;75.17;99939.40;105805;1286;71144;-86
2023/08/29 07:42:49;;;;;;;;;;;;;;;16.37;75.17;99943.41;105831;1286;60990;-87
2023/08/29 07:46:16;;;;;;;;;;;;;;;16.38;75.15;99953.45;105758;1285;59833;-87
2023/08/29 07:49:42;;;;;;;;;;;;;;;16.40;75.32;99960.80;105788;1290;72435;-86
2023/08/29 07:53:09;;;;;;;;;;;;;;;16.42;75.30;99956.15;105815;1286;68172;-86
2023/08/29 07:56:35;;;;;;;;;;;;;;;16.45;75.22;99955.67;105816;1286;71400;-86
2023/08/29 08:00:01;;;;;;;;;;;;;;;16.50;75.27;99959.61;105784;1286;59541;-86
2023/08/29 08:03:27;;;;;;;;;;;;;;;16.56;75.23;99968.17;105802;1286;60456;-87
2023/08/29 08:06:54;;;;;;;;;;;;;;;16.64;75.32;99973.00;105755;1288;73820;-86
2023/08/29 08:10:20;;;;;;;;;;;;;;;16.69;75.25;99967.02;105804;1286;68586;-86
2023/08/29 08:13:47;;;;;;;;;;;;;;;16.74;75.33;99968.79;105752;1290;72646;-86
2023/08/29 08:17:13;;;;;;;;;;;;;;;16.81;75.26;99951.39;105793;1285;60441;-86
2023/08/29 08:20:39;;;;;;;;;;;;;;;16.87;75.23;99943.23;105786;1286;59218;-87
2023/08/29 08:24:08;;;;;;;;;;;;;;;16.89;75.27;99941.73;105785;1286;72590;-86
2023/08/29 08:27:34;;;;;;;;;;;;;;;16.92;75.18;99947.68;105865;1285;67604;-87
2023/08/29 08:31:00;;;;;;;;;;;;;;;16.96;75.35;99957.77;105799;1286;73047;-87
2023/08/29 08:34:27;;;;;;;;;;;;;;;16.96;75.09;99955.46;105723;1286;60453;-89
2023/08/29 08:37:53;;;;;;;;;;;;;;;16.97;75.08;99946.86;105830;1286;60287;-89
2023/08/29 08:41:19;;;;;;;;;;;;;;;16.99;75.08;99944.35;105786;1286;74445;-90
2023/08/29 08:44:46;;;;;;;;;;;;;;;17.03;75.19;99945.69;105764;1286;69315;-89
2023/08/29 08:48:12;;;;;;;;;;;;;;;17.08;75.18;99935.70;105779;1288;71632;-89
2023/08/29 08:51:39;;;;;;;;;;;;;;;17.11;75.17;99949.45;105795;1286;59559;-90
2023/08/29 08:55:05;;;;;;;;;;;;;;;17.11;75.12;99958.00;105835;1290;59258;-90
2023/08/29 08:58:31;;;;;;;;;;;;;;;17.14;75.19;99955.71;105102;1292;75273;-88
2023/08/29 09:01:58;;;;;;;;;;;;;;;17.18;75.22;99961.23;105132;1292;67919;-88
2023/08/29 09:05:24;;;;;;;;;;;;;;;17.24;75.13;99946.31;105148;1295;71349;-89
2023/08/29 09:08:51;;;;;;;;;;;;;;;17.29;75.19;99949.84;105144;1295;60353;-89
2023/08/29 09:12:16;;;;;;;;;;;;;;;17.36;75.14;99961.84;104882;1299;62368;-89
2023/08/29 09:15:43;;;;;;;;;;;;;;;17.40;75.09;99964.42;104997;1296;73293;-89
2023/08/29 09:19:09;;;;;;;;;;;;;;;17.43;75.05;99954.51;105037;1295;67355;-87
2023/08/29 09:22:35;;;;;;;;;;;;;;;17.45;75.09;99941.51;104961;1295;71595;-86
2023/08/29 09:26:02;;;;;;;;;;;;;;;17.49;75.03;99944.89;104885;1295;61378;-87
2023/08/29 09:29:34;;;;;;;;;;;;;;;17.53;75.04;99939.27;104919;1298;59505;-87
2023/08/29 09:33:00;;;;;;;;;;;;;;;17.57;75.10;99938.23;104995;1296;72407;-87
2023/08/29 09:36:26;;;;;;;;;;;;;;;17.58;74.93;99933.09;105327;1292;69548;-87
2023/08/29 09:39:53;;;;;;;;;;;;;;;17.61;75.13;99944.81;105454;1289;73833;-87
2023/08/29 09:43:19;;;;;;;;;;;;;;;17.63;75.19;99961.77;105433;1289;60459;-87
2023/08/29 09:46:45;;;;;;;;;;;;;;;17.63;75.13;99973.43;105633;1291;59164;-87
2023/08/29 09:50:12;;;;;;;;;;;;;;;17.62;75.01;99976.09;105732;1286;72570;-87
2023/08/29 09:53:40;;;;;;;;;;;;;;;17.58;75.13;99974.90;105377;1289;68070;-87
2023/08/29 09:57:05;;;;;;;;;;;;;;;17.56;75.02;99978.51;105435;1289;73943;-87
2023/08/29 10:00:31;;;;;;;;;;;;;;;17.55;75.18;99976.30;105306;1289;60577;-87
2023/08/29 10:03:57;;;;;;;;;;;;;;;17.54;75.07;99976.35;105374;1292;60435;-87
2023/08/29 10:07:24;;;;;;;;;;;;;;;17.51;75.19;99979.30;105381;1289;72487;-88
2023/08/29 10:10:53;;;;;;;;;;;;;;;17.51;75.21;99985.05;105452;1289;67402;-87
2023/08/29 10:14:22;;;;;;;;;;;;;;;17.51;75.08;99978.63;105529;1289;72079;-86
2023/08/29 10:17:49;;;;;;;;;;;;;;;17.52;75.07;99971.23;105385;1289;60886;-87
2023/08/29 10:21:15;;;;;;;;;;;;;;;17.53;75.12;99967.52;104959;1297;59280;-86
2023/08/29 10:24:44;;;;;;;;;;;;;;;17.54;75.17;99973.03;104960;1295;73006;-86
2023/08/29 10:28:09;;;;;;;;;;;;;;;17.54;75.17;99977.75;105025;1294;67257;-86
2023/08/29 10:31:35;;;;;;;;;;;;;;;17.52;75.13;99966.71;105077;1295;72141;-86
2023/08/29 10:35:02;;;;;;;;;;;;;;;17.52;75.27;99961.84;105025;1294;59241;-86
2023/08/29 10:38:29;;;;;;;;;;;;;;;17.56;75.38;99961.81;105039;1294;59273;-86
2023/08/29 10:42:07;;;;;;;;;;;;;;;17.61;75.27;99965.38;105018;1294;72456;-86
2023/08/29 10:45:32;;;;;;;;;;;;;;;17.66;75.41;99951.84;104475;1300;68434;-86
2023/08/29 10:49:01;;;;;;;;;;;;;;;17.72;75.37;99943.62;104527;1305;74531;-86
2023/08/29 10:52:28;;;;;;;;;;;;;;;17.81;75.41;99943.31;104061;1306;60501;-86
2023/08/29 10:55:54;;;;;;;;;;;;;;;17.87;75.49;99953.97;104049;1306;60374;-86
2023/08/29 10:59:21;;;;;;;;;;;;;;;17.89;75.59;99961.51;104384;1302;76371;-86
2023/08/29 11:02:48;;;;;;;;;;;;;;;17.92;75.55;99961.72;104443;1302;67723;-86
2023/08/29 11:06:27;;;;;;;;;;;;;;;;;;;;;
2023/08/29 11:09:24;;;;;;;;;;;;;;;17.97;75.46;99957.04;104347;1300;59519;-84
2023/08/29 11:15:53;;;;;;;;;;;;;;;17.94;75.37;99946.27;104357;1304;73781;-86
2023/08/29 11:19:22;;;;;;;;;;;;;;;17.95;75.40;99944.44;104365;1303;67363;-87
2023/08/29 11:22:45;;;;;;;;;;;;;;;18.00;75.49;99942.92;104801;1294;74223;-88
2023/08/29 11:26:12;;;;;;;;;;;;;;;18.03;75.43;99937.88;104966;1295;60200;-87
2023/08/29 11:29:39;;;;;;;;;;;;;;;18.04;75.42;99928.59;105537;1286;60983;-87
2023/08/29 11:33:19;;;;;;;;;;;;;;;18.07;75.36;99915.66;105935;1286;73988;-87
2023/08/29 11:36:45;;;;;;;;;;;;;;;18.08;75.49;99909.34;105739;1286;67445;-87
2023/08/29 11:40:12;;;;;;;;;;;;;;;18.09;75.46;99911.21;105805;1286;71861;-87
2023/08/29 11:43:39;;;;;;;;;;;;;;;18.13;75.40;99911.14;105179;1294;60298;-87
2023/08/29 11:47:05;;;;;;;;;;;;;;;18.12;75.43;99913.61;105035;1293;60248;-88
2023/08/29 11:50:31;;;;;;;;;;;;;;;18.08;75.33;99918.19;104638;1300;74185;-88
2023/08/29 11:53:58;;;;;;;;;;;;;;;18.07;75.57;99929.80;104679;1301;69001;-87
2023/08/29 11:57:24;;;;;;;;;;;;;;;18.10;75.58;99921.95;104667;1302;71500;-87
2023/08/29 12:00:51;;;;;;;;;;;;;;;18.19;75.63;99925.77;104616;1303;60824;-88
2023/08/29 12:04:17;;;;;;;;;;;;;;;18.27;75.64;99934.55;104713;1300;59941;-86
2023/08/29 12:07:45;;;;;;;;;;;;;;;18.29;75.73;99926.55;104696;1301;75168;-87
2023/08/29 12:11:15;;;;;;;;;;;;;;;18.31;75.52;99924.70;104676;1300;67452;-86
2023/08/29 12:14:42;;;;;;;;;;;;;;;18.28;75.43;99928.02;104648;1300;71282;-86
2023/08/29 12:18:09;;;;;;;;;;;;;;;18.24;75.44;99928.79;104675;1299;59334;-87
2023/08/29 12:21:36;;;;;;;;;;;;;;;18.20;75.34;99928.84;105006;1293;58814;-86
2023/08/29 12:25:01;;;;;;;;;;;;;;;18.15;75.39;99927.58;105046;1294;72862;-87
2023/08/29 12:28:28;;;;;;;;;;;;;;;18.11;75.33;99927.64;104946;1297;67330;-87
2023/08/29 12:31:54;;;;;;;;;;;;;;;18.09;75.54;99925.98;104995;1294;72287;-86
2023/08/29 12:35:21;;;;;;;;;;;;;;;18.08;75.53;99926.79;104974;1294;58507;-86
2023/08/29 12:38:48;;;;;;;;;;;;;;;18.04;75.55;99931.69;104435;1302;59386;-87
2023/08/29 12:42:15;;;;;;;;;;;;;;;18.02;75.54;99940.74;104494;1304;76231;-86
2023/08/29 12:45:42;;;;;;;;;;;;;;;17.99;75.56;99942.64;104462;1303;67747;-86
2023/08/29 12:49:08;;;;;;;;;;;;;;;17.96;75.47;99934.64;104541;1302;71272;-86
2023/08/29 12:52:35;;;;;;;;;;;;;;;17.94;75.61;99929.86;104428;1303;61033;-86
2023/08/29 12:56:03;;;;;;;;;;;;;;;17.92;75.59;99935.02;104523;1302;60477;-86
2023/08/29 12:59:31;;;;;;;;;;;;;;;17.91;75.60;99932.09;104457;1302;72500;-87
2023/08/29 13:03:00;;;;;;;;;;;;;;;17.92;75.71;99942.00;104478;1302;70596;-86
2023/08/29 13:06:27;;;;;;;;;;;;;;;17.91;75.68;99948.49;105011;1295;71737;-86
2023/08/29 13:09:54;;;;;;;;;;;;;;;17.90;75.71;99953.80;104952;1295;60360;-86
2023/08/29 13:13:19;;;;;;;;;;;;;;;17.90;75.67;99952.39;104951;1293;59155;-87
2023/08/29 13:16:54;;;;;;;;;;;;;;;17.90;75.81;99945.93;105726;1285;73648;-86
2023/08/29 13:20:19;;;;;;;;;;;;;;;17.92;75.79;99937.84;105016;1295;68104;-86
2023/08/29 13:23:46;;;;;;;;;;;;;;;17.93;75.90;99935.48;104449;1302;73057;-86
2023/08/29 13:27:13;;;;;;;;;;;;;;;17.94;75.70;99937.88;104278;1306;60726;-87
2023/08/29 13:30:40;;;;;;;;;;;;;;;17.94;75.74;99925.31;104248;1306;60424;-88
2023/08/29 13:34:06;;;;;;;;;;;;;;;17.92;75.67;99919.50;104247;1307;75624;-87
2023/08/29 13:37:33;;;;;;;;;;;;;;;17.92;75.78;99920.75;104239;1306;67518;-87
2023/08/29 13:43:35;;;;;;;;;;;;;;;17.92;75.79;99897.86;105829;1286;59450;-87
2023/08/29 13:47:03;;;;;;;;;;;;;;;17.92;75.89;99890.37;105734;1290;59663;-86
2023/08/29 13:50:29;;;;;;;;;;;;;;;17.93;75.89;99885.78;105548;1286;72466;-86
2023/08/29 13:53:55;;;;;;;;;;;;;;;17.93;75.94;99889.59;105556;1286;68698;-88
2023/08/29 13:57:32;;;;;;;;;;;;;;;17.96;76.00;99891.88;105460;1289;71815;-89
2023/08/29 14:00:50;;;;;;;;;;;;;;;17.99;76.07;99895.02;105568;1292;60394;-86
2023/08/29 14:04:16;;;;;;;;;;;;;;;18.00;76.07;99897.94;105309;1288;59492;-86
2023/08/29 14:12:54;;;;;;;;;;;;;;;18.06;76.10;99901.39;105588;1289;72383;-87
2023/08/29 14:16:20;;;;;;;;;;;;;;;18.06;75.95;99901.61;105590;1291;59066;-87
2023/08/29 14:19:47;;;;;;;;;;;;;;;18.04;76.09;99907.66;105537;1291;59192;-87
2023/08/29 14:23:13;;;;;;;;;;;;;;;18.05;76.16;99906.71;106173;1291;73750;-89
2023/08/29 14:26:40;;;;;;;;;;;;;;;18.06;76.09;99904.72;105439;1288;67337;-87
2023/08/29 14:30:08;;;;;;;;;;;;;;;18.04;76.04;99903.60;105436;1288;73103;-87
2023/08/29 14:33:35;;;;;;;;;;;;;;;18.03;76.06;99898.81;105547;1287;60425;-87
2023/08/29 14:37:12;;;;;;;;;;;;;;;;;;;;;
2023/08/29 14:40:28;;;;;;;;;;;;;;;18.07;76.13;99885.86;105478;1288;73769;-87
2023/08/29 14:43:30;;;;;;;;;;;;;;;18.08;76.09;99879.84;105739;1288;66620;-88
2023/08/29 14:46:58;;;;;;;;;;;;;;;18.11;76.22;99887.69;105543;1288;71222;-87
2023/08/29 14:50:26;;;;;;;;;;;;;;;18.13;76.29;99889.84;105613;1288;62064;-87
2023/08/29 14:53:54;;;;;;;;;;;;;;;18.12;76.15;99892.52;105382;1287;59604;-86
2023/08/29 14:57:23;;;;;;;;;;;;;;;18.12;76.23;99900.70;105519;1290;74184;-87
2023/08/29 15:00:52;;;;;;;;;;;;;;;18.12;76.26;99896.53;105504;1289;67381;-85
2023/08/29 15:04:18;;;;;;;;;;;;;;;18.13;76.21;99887.08;104922;1290;71363;-85
2023/08/29 15:07:24;;;;;;;;;;;;;;;18.12;76.20;99886.79;105238;1290;60463;-85
2023/08/29 15:10:51;;;;;;;;;;;;;;;18.09;76.10;99885.17;106117;1289;59360;-85
2023/08/29 15:14:17;;;;;;;;;;;;;;;18.07;76.19;99898.73;105439;1289;72996;-85
2023/08/29 15:17:44;;;;;;;;;;;;;;;18.03;76.27;99906.14;105279;1289;69697;-85
2023/08/29 15:21:10;;;;;;;;;;;;;;;18.02;76.44;99912.48;105331;1289;71870;-85
2023/08/29 15:24:36;;;;;;;;;;;;;;;18.01;76.40;99916.00;105399;1289;58259;-85
2023/08/29 15:28:02;;;;;;;;;;;;;;;18.00;76.37;99926.02;105363;1290;60936;-85
2023/08/29 15:31:28;;;;;;;;;;;;;;;17.99;76.44;99934.25;104888;1294;72702;-84
2023/08/29 15:34:54;;;;;;;;;;;;;;;17.96;76.36;99932.50;104904;1294;67206;-84
2023/08/29 15:38:20;;;;;;;;;;;;;;;17.95;76.41;99933.11;104980;1294;73296;-85
2023/08/29 15:41:46;;;;;;;;;;;;;;;17.92;76.35;99936.09;104920;1293;59984;-84
2023/08/29 15:45:13;;;;;;;;;;;;;;;17.90;76.49;99925.55;104868;1294;60279;-84
2023/08/29 15:48:39;;;;;;;;;;;;;;;17.87;76.44;99925.52;104904;1294;73083;-84
2023/08/29 15:52:04;;;;;;;;;;;;;;;17.85;76.44;99924.77;104877;1295;67284;-84
2023/08/29 15:55:14;;;;;;;;;;;;;;;17.84;76.58;99918.17;105243;1294;71720;-85
2023/08/29 15:58:41;;;;;;;;;;;;;;;17.83;76.45;99905.33;104609;1297;60503;-84
2023/08/29 16:02:07;;;;;;;;;;;;;;;17.83;76.57;99903.08;104659;1294;60378;-84
2023/08/29 16:05:33;;;;;;;;;;;;;;;17.82;76.63;99897.73;105260;1292;73731;-84
2023/08/29 16:08:58;;;;;;;;;;;;;;;17.81;76.58;99893.79;105023;1294;67374;-84
2023/08/29 16:12:26;;;;;;;;;;;;;;;17.80;76.68;99889.48;104964;1293;71996;-84
2023/08/29 16:15:51;;;;;;;;;;;;;;;17.79;76.59;99892.47;105064;1293;60400;-85
2023/08/29 16:19:17;;;;;;;;;;;;;;;17.79;76.69;99886.06;104955;1293;60355;-84
2023/08/29 16:22:43;;;;;;;;;;;;;;;17.77;76.83;99884.95;105017;1295;72482;-85
2023/08/29 16:26:09;;;;;;;;;;;;;;;17.75;76.79;99885.40;105119;1294;67156;-85
2023/08/29 16:29:35;;;;;;;;;;;;;;;17.74;76.69;99883.54;104992;1295;71466;-85
2023/08/29 16:33:02;;;;;;;;;;;;;;;17.72;76.86;99884.05;105005;1293;60547;-85
2023/08/29 16:36:27;;;;;;;;;;;;;;;17.70;76.68;99877.71;105152;1293;62196;-84
2023/08/29 16:39:53;;;;;;;;;;;;;;;17.69;76.79;99880.21;104929;1293;72758;-84
2023/08/29 16:43:01;;;;;;;;;;;;;;;17.66;76.85;99886.30;104824;1293;66719;-84
2023/08/29 16:46:27;;;;;;;;;;;;;;;17.63;76.73;99889.04;104909;1297;70412;-84
2023/08/29 16:49:54;;;;;;;;;;;;;;;17.62;76.95;99891.77;86394;1300;5004638;-85
2023/08/29 16:53:20;;;;;;;;;;;;;;;17.60;76.89;99891.00;104804;1297;73327;-84
2023/08/29 16:56:28;;;;;;;;;;;;;;;17.58;76.95;99890.06;104697;1296;67348;-85
2023/08/29 17:00:13;;;;;;;;;;;;;;;17.58;76.94;99887.45;104621;1296;72015;-85
2023/08/29 17:03:38;;;;;;;;;;;;;;;17.56;76.95;99889.13;104649;1297;59241;-85
2023/08/29 17:07:04;;;;;;;;;;;;;;;17.54;76.99;99897.23;105060;1296;60086;-84
2023/08/29 17:10:32;;;;;;;;;;;;;;;17.54;76.97;99892.38;105073;1295;72566;-85
2023/08/29 17:13:57;;;;;;;;;;;;;;;17.53;77.07;99889.48;104988;1293;68094;-84
2023/08/29 17:17:23;;;;;;;;;;;;;;;17.52;77.03;99891.41;105130;1291;75973;-84
2023/08/29 17:20:31;;;;;;;;;;;;;;;17.51;76.95;99890.46;105322;1291;60959;-84
2023/08/29 17:23:57;;;;;;;;;;;;;;;17.50;76.97;99890.17;105421;1291;61192;-84
2023/08/29 17:27:23;;;;;;;;;;;;;;;17.47;77.11;99880.52;105294;1291;75547;-84
2023/08/29 17:30:49;;;;;;;;;;;;;;;17.46;77.19;99876.58;97999;1290;10001402;-84
2023/08/29 17:34:15;;;;;;;;;;;;;;;17.45;77.12;99882.75;105304;1291;60460;-84
2023/08/29 17:37:41;;;;;;;;;;;;;;;17.44;77.15;99880.73;105324;1289;72266;-84
2023/08/29 17:41:07;;;;;;;;;;;;;;;17.42;77.15;99881.52;106272;1289;67510;-85
2023/08/29 17:44:15;;;;;;;;;;;;;;;17.42;77.12;99878.42;105880;1289;71434;-85